createdAt,value
2023-05-12T00:01:18.136Z,25.30
2023-05-12T00:04:19.865Z,23.90
2023-05-12T00:07:21.547Z,22.50
2023-05-12T00:13:25.497Z,24.10
2023-05-12T00:16:27.375Z,19.80
2023-05-12T00:19:29.066Z,25.70
2023-05-12T00:25:32.666Z,23.70
2023-05-12T00:28:34.559Z,23.90
2023-05-12T00:31:36.315Z,25.20
2023-05-12T00:34:38.202Z,22.30
2023-05-12T00:37:39.888Z,21.40
2023-05-12T00:40:41.463Z,21.60
2023-05-12T00:46:44.721Z,20.60
2023-05-12T00:49:46.665Z,24.90
2023-05-12T00:52:49.254Z,23.00
2023-05-12T00:55:50.991Z,25.60
2023-05-12T00:58:52.630Z,24.50
2023-05-12T01:04:55.740Z,19.60
2023-05-12T01:07:59.897Z,24.00
2023-05-12T01:11:01.438Z,23.30
2023-05-12T01:17:10.608Z,21.80
2023-05-12T01:20:13.409Z,22.80
2023-05-12T01:23:18.877Z,21.50
2023-05-12T01:26:20.627Z,20.30
2023-05-12T01:29:22.949Z,21.40
2023-05-12T01:32:24.823Z,21.10
2023-05-12T01:35:26.654Z,28.30
2023-05-12T01:38:28.257Z,20.70
2023-05-12T01:44:31.548Z,22.70
2023-05-12T01:47:33.739Z,22.60
2023-05-12T01:50:35.344Z,20.70
2023-05-12T01:53:37.081Z,26.40
2023-05-12T01:59:40.219Z,19.10
2023-05-12T02:05:45.126Z,21.40
2023-05-12T02:11:48.843Z,26.20
2023-05-12T02:14:50.436Z,24.00
2023-05-12T02:17:52.224Z,21.60
2023-05-12T02:20:53.816Z,21.60
2023-05-12T02:26:56.968Z,21.50
2023-05-12T02:33:00.277Z,23.10
2023-05-12T02:39:03.485Z,25.10
2023-05-12T02:42:05.618Z,24.40
2023-05-12T02:45:07.787Z,23.30
2023-05-12T02:48:09.697Z,25.40
2023-05-12T02:51:11.385Z,22.20
2023-05-12T02:54:13.013Z,21.80
2023-05-12T02:57:14.593Z,21.60
2023-05-12T03:03:17.910Z,21.70
2023-05-12T03:06:20.777Z,21.60
2023-05-12T03:09:25.381Z,21.60
2023-05-12T03:15:28.709Z,20.60
2023-05-12T03:18:30.251Z,26.90
2023-05-12T03:24:34.413Z,22.50
2023-05-12T03:27:36.044Z,27.80
2023-05-12T03:33:39.082Z,24.20
2023-05-12T03:39:42.069Z,22.20
2023-05-12T03:48:47.311Z,21.80
2023-05-12T03:51:49.005Z,22.60
2023-05-12T03:54:50.663Z,21.50
2023-05-12T04:00:56.908Z,24.10
2023-05-12T04:03:58.560Z,24.00
2023-05-12T04:07:00.250Z,22.70
2023-05-12T04:10:01.788Z,26.50
2023-05-12T04:13:03.724Z,21.30
2023-05-12T04:16:05.691Z,22.70
2023-05-12T04:19:07.375Z,21.90
2023-05-12T04:22:09.173Z,20.00
2023-05-12T04:25:10.729Z,20.30
2023-05-12T04:34:15.559Z,21.90
2023-05-12T04:37:20.135Z,23.10
2023-05-12T04:46:28.194Z,19.90
2023-05-12T04:49:29.871Z,24.30
2023-05-12T04:52:31.911Z,20.60
2023-05-12T04:55:33.461Z,23.20
2023-05-12T04:58:35.085Z,20.60
2023-05-12T05:01:36.698Z,20.00
2023-05-12T05:04:38.428Z,20.80
2023-05-12T05:07:40.103Z,21.00
2023-05-12T05:10:41.776Z,18.70
2023-05-12T05:13:43.315Z,22.50
2023-05-12T05:16:45.364Z,19.30
2023-05-12T05:19:57.385Z,19.70
2023-05-12T05:23:00.974Z,23.60
2023-05-12T05:26:02.580Z,18.90
2023-05-12T05:29:04.809Z,20.10
2023-05-12T05:32:06.552Z,23.30
2023-05-12T05:35:08.693Z,22.20
2023-05-12T05:38:10.700Z,17.90
2023-05-12T05:41:12.521Z,21.80
2023-05-12T05:44:14.516Z,21.20
2023-05-12T05:47:16.452Z,19.30
2023-05-12T05:50:18.104Z,19.20
2023-05-12T05:53:20.705Z,24.10
2023-05-12T05:56:25.412Z,21.70
2023-05-12T05:59:27.326Z,20.10
2023-05-12T06:02:29.195Z,17.50
2023-05-12T06:05:30.945Z,19.20
2023-05-12T06:08:33.178Z,23.10
2023-05-12T06:11:34.898Z,18.00
2023-05-12T06:14:36.534Z,20.20
2023-05-12T06:17:38.506Z,21.00
2023-05-12T06:20:40.177Z,20.90
2023-05-12T06:23:41.905Z,19.40
2023-05-12T06:26:43.852Z,17.90
2023-05-12T06:29:45.378Z,18.10
2023-05-12T06:32:47.100Z,19.60
2023-05-12T06:35:49.083Z,17.80
2023-05-12T06:38:50.706Z,19.70
2023-05-12T06:41:52.362Z,21.30
2023-05-12T06:44:53.939Z,18.20
2023-05-12T06:47:55.545Z,13.10
2023-05-12T06:50:57.147Z,16.20
2023-05-12T06:53:59.073Z,18.30
2023-05-12T06:57:00.775Z,15.30
2023-05-12T07:00:02.927Z,18.80
2023-05-12T07:03:04.757Z,15.20
2023-05-12T07:06:06.652Z,15.20
2023-05-12T07:09:08.204Z,15.90
2023-05-12T07:12:09.815Z,13.30
2023-05-12T07:15:11.696Z,15.00
2023-05-12T07:18:13.336Z,19.10
2023-05-12T07:21:14.961Z,14.40
2023-05-12T07:24:16.729Z,14.10
2023-05-12T07:27:18.370Z,15.00
2023-05-12T07:30:20.141Z,17.40
2023-05-12T07:33:22.193Z,13.80
2023-05-12T07:36:23.780Z,17.00
2023-05-12T07:39:26.413Z,13.20
2023-05-12T07:42:28.116Z,17.60
2023-05-12T07:45:30.276Z,10.10
2023-05-12T07:48:31.877Z,13.10
2023-05-12T07:51:33.381Z,11.10
2023-05-12T07:54:34.932Z,11.00
2023-05-12T07:57:36.456Z,15.10
2023-05-12T08:00:38.538Z,12.00
2023-05-12T08:03:40.590Z,9.70
2023-05-12T08:06:42.221Z,11.60
2023-05-12T08:09:43.884Z,12.90
2023-05-12T08:12:46.254Z,11.20
2023-05-12T08:15:49.636Z,8.90
2023-05-12T08:18:52.267Z,10.80
2023-05-12T08:21:53.993Z,11.90
2023-05-12T08:24:55.589Z,9.30
2023-05-12T08:27:57.221Z,10.90
2023-05-12T08:30:59.019Z,11.00
2023-05-12T08:34:09.783Z,9.60
2023-05-12T08:37:13.400Z,12.70
2023-05-12T08:40:21.580Z,8.60
2023-05-12T08:43:25.602Z,9.80
2023-05-12T08:46:27.342Z,10.30
2023-05-12T08:49:31.959Z,11.70
2023-05-12T08:52:35.083Z,13.30
2023-05-12T08:55:37.186Z,9.20
2023-05-12T08:58:42.220Z,10.70
2023-05-12T09:01:44.344Z,11.20
2023-05-12T09:04:46.066Z,11.70
2023-05-12T09:07:49.026Z,10.60
2023-05-12T09:10:50.816Z,11.90
2023-05-12T09:13:57.962Z,14.10
2023-05-12T09:17:04.876Z,13.50
2023-05-12T09:20:07.780Z,13.30
2023-05-12T09:23:16.189Z,11.80
2023-05-12T09:26:17.843Z,8.10
2023-05-12T09:29:30.825Z,10.50
2023-05-12T09:32:34.485Z,13.70
2023-05-12T09:35:45.924Z,6.10
2023-05-12T09:38:58.943Z,10.70
2023-05-12T09:42:00.755Z,12.90
2023-05-12T09:45:06.872Z,8.70
2023-05-12T09:48:12.843Z,12.90
2023-05-12T09:51:18.238Z,8.30
2023-05-12T09:54:27.387Z,5.50
2023-05-12T09:57:29.055Z,6.40
2023-05-12T10:00:43.420Z,9.70
2023-05-12T10:03:51.113Z,9.40
2023-05-12T10:06:52.957Z,8.10
2023-05-12T10:09:55.867Z,9.30
2023-05-12T10:12:57.909Z,7.70
2023-05-12T10:16:00.111Z,9.60
2023-05-12T10:19:03.556Z,6.60
2023-05-12T10:22:05.980Z,10.60
2023-05-12T10:25:08.892Z,9.90
2023-05-12T10:28:10.914Z,8.90
2023-05-12T10:31:13.550Z,11.00
2023-05-12T10:34:18.425Z,10.80
2023-05-12T10:37:22.862Z,8.40
2023-05-12T10:40:24.827Z,12.20
2023-05-12T10:43:29.138Z,10.40
2023-05-12T10:46:31.104Z,7.30
2023-05-12T10:49:39.768Z,12.60
2023-05-12T10:52:52.766Z,17.70
2023-05-12T10:55:56.019Z,13.90
2023-05-12T10:59:21.515Z,15.40
2023-05-12T11:02:27.030Z,11.20
2023-05-12T11:05:34.352Z,13.10
2023-05-12T11:08:37.857Z,11.10
2023-05-12T11:11:40.557Z,14.60
2023-05-12T11:14:44.241Z,13.30
2023-05-12T11:17:46.432Z,10.30
2023-05-12T11:20:48.722Z,12.00
2023-05-12T11:23:50.969Z,12.70
2023-05-12T11:26:52.489Z,11.80
2023-05-12T11:30:02.128Z,9.50
2023-05-12T11:33:03.864Z,15.50
2023-05-12T11:36:05.970Z,14.90
2023-05-12T11:39:07.704Z,12.20
2023-05-12T11:42:13.615Z,11.00
2023-05-12T11:45:23.609Z,15.40
2023-05-12T11:48:33.372Z,14.30
2023-05-12T11:51:34.993Z,12.80
2023-05-12T11:54:36.683Z,11.00
2023-05-12T11:57:38.462Z,10.40
2023-05-12T12:00:40.333Z,11.60
2023-05-12T12:03:49.964Z,13.40
2023-05-12T12:06:51.716Z,13.60
2023-05-12T12:09:53.255Z,11.90
2023-05-12T12:12:54.848Z,11.90
2023-05-12T12:15:56.432Z,12.20
2023-05-12T12:18:58.491Z,10.90
2023-05-12T12:22:00.162Z,12.10
2023-05-12T12:25:03.212Z,12.00
2023-05-12T12:28:05.156Z,10.00
2023-05-12T12:31:06.802Z,11.90
2023-05-12T12:34:08.340Z,11.20
2023-05-12T12:37:10.052Z,9.00
2023-05-12T12:40:11.833Z,13.80
2023-05-12T12:43:13.413Z,12.50
2023-05-12T12:46:15.009Z,11.60
2023-05-12T12:49:16.575Z,15.80
2023-05-12T12:52:18.118Z,9.80
2023-05-12T12:55:19.963Z,11.10
2023-05-12T12:58:23.274Z,7.70
2023-05-12T13:01:26.010Z,9.80
2023-05-12T13:04:28.873Z,9.50
2023-05-12T13:07:31.763Z,10.40
2023-05-12T13:10:33.443Z,9.30
2023-05-12T13:13:36.325Z,12.90
2023-05-12T13:16:37.956Z,10.30
2023-05-12T13:19:39.498Z,10.10
2023-05-12T13:22:44.644Z,7.90
2023-05-12T13:25:46.228Z,8.20
2023-05-12T13:28:47.941Z,6.20
2023-05-12T13:31:49.594Z,13.50
2023-05-12T13:34:51.217Z,16.10
2023-05-12T13:37:52.857Z,11.60
2023-05-12T13:40:54.667Z,11.40
2023-05-12T13:43:56.338Z,9.90
2023-05-12T13:46:57.976Z,9.90
2023-05-12T13:49:59.561Z,7.90
2023-05-12T13:53:01.085Z,9.40
2023-05-12T13:56:02.823Z,12.70
2023-05-12T13:59:04.539Z,7.10
2023-05-12T14:02:06.273Z,12.00
2023-05-12T14:05:08.537Z,13.30
2023-05-12T14:08:10.212Z,10.20
2023-05-12T14:11:11.794Z,11.20
2023-05-12T14:14:13.358Z,11.30
2023-05-12T14:17:15.528Z,10.00
2023-05-12T14:20:17.122Z,8.70
2023-05-12T14:23:19.163Z,10.80
2023-05-12T14:26:20.852Z,13.50
2023-05-12T14:29:22.449Z,16.10
2023-05-12T14:32:24.017Z,10.10
2023-05-12T14:35:25.660Z,10.10
2023-05-12T14:38:27.324Z,10.70
2023-05-12T14:41:28.900Z,15.70
2023-05-12T14:44:30.509Z,12.60
2023-05-12T14:47:32.125Z,14.50
2023-05-12T14:50:33.850Z,19.00
2023-05-12T14:53:35.384Z,12.10
2023-05-12T14:56:37.078Z,17.70
2023-05-12T14:59:38.724Z,8.50
2023-05-12T15:02:41.252Z,13.30
2023-05-12T15:05:59.656Z,13.20
2023-05-12T15:09:04.570Z,12.90
2023-05-12T15:12:06.490Z,9.80
2023-05-12T15:15:08.878Z,13.10
2023-05-12T15:18:10.733Z,12.30
2023-05-12T15:21:12.472Z,11.10
2023-05-12T15:24:14.094Z,15.80
2023-05-12T15:27:15.664Z,11.30
2023-05-12T15:30:17.470Z,11.70
2023-05-12T15:33:19.862Z,10.60
2023-05-12T15:36:21.454Z,14.30
2023-05-12T15:39:23.562Z,13.70
2023-05-12T15:42:32.317Z,18.40
2023-05-12T15:45:34.525Z,12.60
2023-05-12T15:48:36.115Z,12.50
2023-05-12T15:51:37.911Z,12.10
2023-05-12T15:54:39.569Z,9.30
2023-05-12T15:57:41.372Z,13.60
2023-05-12T16:00:43.040Z,10.60
2023-05-12T16:03:44.882Z,14.10
2023-05-12T16:06:46.495Z,14.40
2023-05-12T16:09:48.143Z,16.40
2023-05-12T16:12:49.719Z,17.80
2023-05-12T16:15:51.356Z,21.80
2023-05-12T16:18:52.991Z,24.50
2023-05-12T16:21:54.677Z,22.00
2023-05-12T16:24:56.196Z,21.60
2023-05-12T16:27:57.895Z,19.20
2023-05-12T16:31:02.149Z,15.60
2023-05-12T16:34:03.837Z,13.20
2023-05-12T16:37:05.349Z,14.20
2023-05-12T16:40:07.856Z,14.00
2023-05-12T16:43:09.920Z,16.70
2023-05-12T16:46:11.485Z,16.50
2023-05-12T16:49:13.058Z,14.90
2023-05-12T16:52:14.653Z,17.90
2023-05-12T16:55:16.358Z,16.70
2023-05-12T16:58:17.857Z,18.40
2023-05-12T17:01:19.691Z,17.80
2023-05-12T17:04:21.288Z,21.30
2023-05-12T17:07:22.850Z,23.90
2023-05-12T17:10:24.573Z,13.90
2023-05-12T17:13:26.348Z,14.20
2023-05-12T17:16:28.056Z,16.70
2023-05-12T17:19:29.811Z,12.80
2023-05-12T17:22:31.534Z,11.50
2023-05-12T17:25:33.092Z,15.00
2023-05-12T17:28:34.784Z,15.30
2023-05-12T17:31:37.452Z,14.60
2023-05-12T17:34:39.120Z,17.30
2023-05-12T17:37:40.784Z,14.90
2023-05-12T17:40:42.418Z,19.60
2023-05-12T17:43:44.001Z,17.00
2023-05-12T17:46:45.551Z,15.80
2023-05-12T17:49:47.164Z,17.40
2023-05-12T17:52:48.724Z,18.60
2023-05-12T17:55:50.575Z,18.00
2023-05-12T17:58:52.237Z,16.80
2023-05-12T18:01:53.839Z,18.60
2023-05-12T18:04:55.501Z,26.10
2023-05-12T18:07:57.099Z,30.90
2023-05-12T18:10:58.968Z,29.10
2023-05-12T18:14:01.439Z,30.40
2023-05-12T18:17:03.200Z,32.40
2023-05-12T18:20:05.895Z,22.90
2023-05-12T18:23:07.515Z,26.00
2023-05-12T18:26:09.089Z,21.80
2023-05-12T18:29:10.659Z,24.80
2023-05-12T18:32:12.340Z,28.00
2023-05-12T18:35:14.073Z,23.70
2023-05-12T18:38:15.701Z,29.90
2023-05-12T18:41:17.195Z,22.90
2023-05-12T18:44:18.869Z,22.90
2023-05-12T18:47:20.480Z,22.10
2023-05-12T18:50:22.152Z,23.20
2023-05-12T18:53:23.842Z,27.70
2023-05-12T18:56:25.448Z,25.30
2023-05-12T18:59:27.178Z,26.30
2023-05-12T19:02:28.842Z,23.60
2023-05-12T19:05:30.968Z,26.60
2023-05-12T19:08:32.566Z,26.00
2023-05-12T19:11:34.194Z,25.10
2023-05-12T19:14:36.273Z,29.20
2023-05-12T19:17:37.909Z,21.30
2023-05-12T19:20:39.639Z,20.60
2023-05-12T19:23:41.731Z,20.40
2023-05-12T19:26:43.424Z,18.30
2023-05-12T19:29:45.028Z,18.50
2023-05-12T19:32:46.980Z,18.10
2023-05-12T19:35:48.667Z,19.40
2023-05-12T19:38:50.284Z,17.30
2023-05-12T19:41:51.887Z,16.90
2023-05-12T19:44:53.438Z,17.00
2023-05-12T19:47:56.157Z,21.70
2023-05-12T19:50:57.767Z,23.20
2023-05-12T19:53:59.365Z,18.10
2023-05-12T19:57:00.974Z,17.90
2023-05-12T20:00:02.760Z,19.50
2023-05-12T20:03:05.676Z,18.30
2023-05-12T20:06:07.431Z,19.80
2023-05-12T20:09:09.612Z,19.70
2023-05-12T20:12:11.230Z,19.20
2023-05-12T20:15:12.863Z,21.20
2023-05-12T20:18:14.845Z,23.00
2023-05-12T20:21:16.947Z,21.20
2023-05-12T20:24:18.621Z,20.70
2023-05-12T20:27:20.271Z,19.20
2023-05-12T20:30:25.016Z,21.90
2023-05-12T20:33:26.627Z,37.20
2023-05-12T20:36:28.270Z,21.80
2023-05-12T20:39:29.843Z,20.20
2023-05-12T20:42:32.003Z,22.10
2023-05-12T20:45:33.641Z,20.70
2023-05-12T20:48:35.324Z,22.40
2023-05-12T20:51:36.933Z,21.40
2023-05-12T20:54:38.601Z,21.10
2023-05-12T20:57:40.278Z,20.10
2023-05-12T21:00:42.033Z,20.00
2023-05-12T21:03:43.768Z,21.60
2023-05-12T21:06:45.392Z,20.70
2023-05-12T21:09:47.380Z,20.30
2023-05-12T21:12:49.051Z,19.40
2023-05-12T21:15:50.845Z,20.00
2023-05-12T21:18:52.447Z,22.30
2023-05-12T21:21:54.137Z,17.90
2023-05-12T21:24:55.777Z,19.80
2023-05-12T21:27:57.395Z,19.80
2023-05-12T21:30:59.075Z,21.00
2023-05-12T21:34:00.680Z,17.80
2023-05-12T21:37:02.326Z,22.00
2023-05-12T21:40:04.455Z,17.90
2023-05-12T21:43:06.005Z,20.00
2023-05-12T21:46:07.656Z,22.30
2023-05-12T21:49:09.712Z,20.20
2023-05-12T21:52:12.018Z,18.60
2023-05-12T21:55:13.601Z,22.50
2023-05-12T21:58:15.235Z,16.50
2023-05-12T22:01:18.071Z,22.20
2023-05-12T22:04:19.719Z,19.50
2023-05-12T22:07:21.809Z,20.80
2023-05-12T22:10:26.709Z,21.20
2023-05-12T22:13:28.347Z,20.60
2023-05-12T22:16:38.531Z,22.20
2023-05-12T22:19:42.748Z,20.60
2023-05-12T22:25:45.929Z,21.50
2023-05-12T22:28:47.540Z,19.70
2023-05-12T22:31:49.341Z,18.90
2023-05-12T22:34:54.628Z,19.40
2023-05-12T22:37:56.209Z,21.90
2023-05-12T22:40:57.894Z,22.70
2023-05-12T22:43:59.526Z,22.90
2023-05-12T22:47:01.187Z,18.90
2023-05-12T22:50:03.308Z,19.20
2023-05-12T22:53:05.064Z,19.50
2023-05-12T22:56:07.407Z,20.90
2023-05-12T22:59:09.063Z,18.90
2023-05-12T23:02:10.788Z,18.60
2023-05-12T23:05:12.458Z,19.70
2023-05-12T23:08:14.218Z,20.70
2023-05-12T23:14:17.334Z,23.00
2023-05-12T23:20:20.632Z,20.10
2023-05-12T23:23:22.408Z,19.60
2023-05-12T23:29:25.388Z,21.00
2023-05-12T23:38:30.325Z,20.20
2023-05-12T23:41:31.962Z,18.70
2023-05-12T23:47:35.229Z,19.00
2023-05-12T23:50:36.874Z,19.30
2023-05-12T23:53:38.479Z,23.60
2023-05-12T23:59:41.644Z,21.10
